createdAt,value
2018-04-19T00:06:53.774Z,102437.79
2018-04-19T00:09:22.481Z,102435.26
2018-04-19T00:11:51.136Z,102438.19
2018-04-19T00:14:19.330Z,102435.73
2018-04-19T00:16:47.583Z,102433.63
2018-04-19T00:19:16.231Z,102431.64
2018-04-19T00:21:44.488Z,102430.88
2018-04-19T00:24:12.717Z,102431.44
2018-04-19T00:26:41.334Z,102432.83
2018-04-19T00:29:09.549Z,102435.37
2018-04-19T00:31:37.778Z,102423.32
2018-04-19T00:34:06.372Z,102426.45
2018-04-19T00:36:34.568Z,102429.18
2018-04-19T00:39:02.880Z,102420.67
2018-04-19T00:41:31.467Z,102419.33
2018-04-19T00:43:59.691Z,102415.48
2018-04-19T00:46:28.164Z,102414.67
2018-04-19T00:48:56.615Z,102409.92
2018-04-19T00:51:24.845Z,102413.22
2018-04-19T00:53:53.235Z,102404.68
2018-04-19T00:56:21.754Z,102404.60
2018-04-19T00:58:49.971Z,102397.92
2018-04-19T01:01:18.389Z,102399.67
2018-04-19T01:03:47.019Z,102395.69
2018-04-19T01:06:15.301Z,102393.26
2018-04-19T01:08:43.531Z,102393.34
2018-04-19T01:11:11.966Z,102392.46
2018-04-19T01:13:40.224Z,102392.55
2018-04-19T01:16:08.518Z,102398.66
2018-04-19T01:18:37.180Z,102393.39
2018-04-19T01:21:05.410Z,102392.00
2018-04-19T01:23:33.669Z,102391.12
2018-04-19T01:26:02.287Z,102389.44
2018-04-19T01:28:30.570Z,102385.02
2018-04-19T01:30:58.842Z,102383.97
2018-04-19T01:33:27.576Z,102386.30
2018-04-19T01:36:07.580Z,102385.84
2018-04-19T01:38:35.794Z,102378.53
2018-04-19T01:41:04.094Z,102388.77
2018-04-19T01:43:32.878Z,102382.59
2018-04-19T01:46:01.082Z,102381.26
2018-04-19T01:48:29.301Z,102383.91
2018-04-19T01:50:57.841Z,102383.66
2018-04-19T01:53:26.107Z,102380.78
2018-04-19T01:55:54.512Z,102382.08
2018-04-19T01:58:23.331Z,102382.81
2018-04-19T02:00:51.543Z,102380.30
2018-04-19T02:03:19.750Z,102383.96
2018-04-19T02:05:48.315Z,102384.91
2018-04-19T02:08:16.589Z,102386.05
2018-04-19T02:10:44.794Z,102388.92
2018-04-19T02:13:13.453Z,102383.66
2018-04-19T02:15:41.689Z,102384.66
2018-04-19T02:18:09.941Z,102382.58
2018-04-19T02:20:38.596Z,102376.11
2018-04-19T02:23:06.827Z,102370.95
2018-04-19T02:25:35.028Z,102373.85
2018-04-19T02:28:03.773Z,102376.73
2018-04-19T02:30:32.027Z,102372.73
2018-04-19T02:33:00.220Z,102373.61
2018-04-19T02:35:28.963Z,102369.47
2018-04-19T02:37:57.226Z,102361.98
2018-04-19T02:40:25.454Z,102364.19
2018-04-19T02:42:54.061Z,102364.59
2018-04-19T02:45:22.307Z,102354.88
2018-04-19T02:47:50.518Z,102353.92
2018-04-19T02:50:19.153Z,102355.70
2018-04-19T02:52:47.364Z,102355.41
2018-04-19T02:55:15.559Z,102353.78
2018-04-19T02:57:44.010Z,102357.59
2018-04-19T03:00:12.215Z,102351.41
2018-04-19T03:02:40.606Z,102349.80
2018-04-19T03:05:09.205Z,102345.44
2018-04-19T03:07:37.431Z,102351.86
2018-04-19T03:10:05.730Z,102352.40
2018-04-19T03:12:34.409Z,102346.31
2018-04-19T03:15:02.633Z,102341.08
2018-04-19T03:17:30.940Z,102346.48
2018-04-19T03:19:59.480Z,102347.42
2018-04-19T03:22:27.717Z,102339.50
2018-04-19T03:24:56.028Z,102336.20
2018-04-19T03:27:24.727Z,102342.11
2018-04-19T03:29:52.931Z,102332.48
2018-04-19T03:32:21.143Z,102335.28
2018-04-19T03:34:49.767Z,102339.80
2018-04-19T03:37:18.157Z,102343.19
2018-04-19T03:39:46.337Z,102343.19
2018-04-19T03:42:14.903Z,102345.12
2018-04-19T03:44:43.118Z,102340.80
2018-04-19T03:47:11.487Z,102341.40
2018-04-19T03:49:40.034Z,102338.44
2018-04-19T03:52:08.319Z,102341.63
2018-04-19T03:54:36.661Z,102335.61
2018-04-19T03:57:07.965Z,102339.08
2018-04-19T03:59:36.760Z,102334.79
2018-04-19T04:02:05.342Z,102341.28
2018-04-19T04:04:33.601Z,102339.52
2018-04-19T04:07:01.906Z,102335.72
2018-04-19T04:09:30.444Z,102333.77
2018-04-19T04:11:58.691Z,102334.43
2018-04-19T04:14:27.070Z,102332.42
2018-04-19T04:17:07.230Z,102333.59
2018-04-19T04:19:47.305Z,102328.84
2018-04-19T04:22:27.438Z,102330.90
2018-04-19T04:24:56.154Z,102329.12
2018-04-19T04:27:25.057Z,102327.50
2018-04-19T04:29:53.377Z,102324.90
2018-04-19T04:32:23.481Z,102334.34
2018-04-19T04:34:52.231Z,102335.05
2018-04-19T04:37:20.808Z,102337.84
2018-04-19T04:39:49.299Z,102332.03
2018-04-19T04:42:17.905Z,102332.91
2018-04-19T04:44:46.411Z,102329.03
2018-04-19T04:47:14.642Z,102332.14
2018-04-19T04:49:43.156Z,102333.08
2018-04-19T04:52:11.948Z,102334.69
2018-04-19T04:54:40.180Z,102336.45
2018-04-19T04:57:08.391Z,102331.20
2018-04-19T04:59:37.126Z,102333.91
2018-04-19T05:02:05.438Z,102335.76
2018-04-19T05:04:33.641Z,102350.33
2018-04-19T05:07:02.429Z,102334.36
2018-04-19T05:09:30.647Z,102340.25
2018-04-19T05:11:58.876Z,102340.31
2018-04-19T05:14:27.714Z,102344.38
2018-04-19T05:16:55.911Z,102343.74
2018-04-19T05:19:24.136Z,102341.02
2018-04-19T05:21:52.732Z,102344.99
2018-04-19T05:24:20.997Z,102339.48
2018-04-19T05:26:49.218Z,102345.19
2018-04-19T05:29:17.834Z,102338.34
2018-04-19T05:31:46.976Z,102340.98
2018-04-19T05:34:15.187Z,102346.05
2018-04-19T05:36:43.453Z,102340.16
2018-04-19T05:39:12.128Z,102344.88
2018-04-19T05:41:40.362Z,102348.24
2018-04-19T05:44:08.579Z,102351.09
2018-04-19T05:46:37.303Z,102354.31
2018-04-19T05:49:05.534Z,102358.17
2018-04-19T05:51:33.748Z,102353.27
2018-04-19T05:54:02.315Z,102353.55
2018-04-19T05:56:30.502Z,102346.63
2018-04-19T05:58:58.729Z,102345.83
2018-04-19T06:01:26.956Z,102345.09
2018-04-19T06:03:55.148Z,102349.27
2018-04-19T06:06:23.606Z,102355.75
2018-04-19T06:08:51.838Z,102353.19
2018-04-19T06:11:20.045Z,102355.87
2018-04-19T06:13:48.870Z,102355.14
2018-04-19T06:16:17.098Z,102353.36
2018-04-19T06:18:45.315Z,102357.75
2018-04-19T06:21:14.255Z,102359.31
2018-04-19T06:23:42.968Z,102358.92
2018-04-19T06:26:11.182Z,102354.05
2018-04-19T06:28:39.422Z,102351.73
2018-04-19T06:31:08.166Z,102355.36
2018-04-19T06:33:36.352Z,102361.21
2018-04-19T06:36:04.550Z,102359.55
2018-04-19T06:38:33.175Z,102359.37
2018-04-19T06:41:01.379Z,102360.91
2018-04-19T06:43:29.628Z,102356.59
2018-04-19T06:45:58.202Z,102358.86
2018-04-19T06:48:26.407Z,102363.66
2018-04-19T06:50:54.627Z,102360.08
2018-04-19T06:53:23.340Z,102361.34
2018-04-19T06:55:51.568Z,102360.78
2018-04-19T06:58:19.799Z,102359.50
2018-04-19T07:00:48.474Z,102355.66
2018-04-19T07:03:16.671Z,102357.02
2018-04-19T07:05:44.897Z,102359.91
2018-04-19T07:08:13.651Z,102360.95
2018-04-19T07:10:41.897Z,102360.86
2018-04-19T07:13:10.085Z,102364.75
2018-04-19T07:15:38.731Z,102354.50
2018-04-19T07:18:06.926Z,102365.30
2018-04-19T07:20:35.116Z,102361.85
2018-04-19T07:23:03.318Z,102362.02
2018-04-19T07:25:31.534Z,102358.27
2018-04-19T07:28:00.119Z,102361.09
2018-04-19T07:30:28.312Z,102360.58
2018-04-19T07:32:56.503Z,102359.83
2018-04-19T07:35:24.826Z,102359.59
2018-04-19T07:37:53.047Z,102356.42
2018-04-19T07:40:21.494Z,102359.25
2018-04-19T07:42:50.072Z,102355.15
2018-04-19T07:45:18.305Z,102361.10
2018-04-19T07:47:46.612Z,102358.71
2018-04-19T07:50:15.189Z,102355.37
2018-04-19T07:52:43.380Z,102361.70
2018-04-19T07:55:11.765Z,102362.25
2018-04-19T07:57:40.014Z,102355.17
2018-04-19T08:00:08.233Z,102353.93
2018-04-19T08:02:36.446Z,102358.52
2018-04-19T08:05:05.126Z,102358.38
2018-04-19T08:07:33.346Z,102361.71
2018-04-19T08:10:01.531Z,102360.20
2018-04-19T08:12:30.249Z,102356.78
2018-04-19T08:14:58.457Z,102362.55
2018-04-19T08:17:26.679Z,102362.63
2018-04-19T08:19:55.384Z,102352.95
2018-04-19T08:22:23.601Z,102355.60
2018-04-19T08:24:51.812Z,102359.74
2018-04-19T08:27:20.412Z,102356.61
2018-04-19T08:29:48.616Z,102352.41
2018-04-19T08:32:16.826Z,102354.94
2018-04-19T08:34:45.525Z,102353.78
2018-04-19T08:37:13.737Z,102347.12
2018-04-19T08:39:41.953Z,102355.87
2018-04-19T08:42:10.194Z,102352.16
2018-04-19T08:44:38.387Z,102355.30
2018-04-19T08:47:06.809Z,102349.09
2018-04-19T08:49:35.030Z,102351.28
2018-04-19T08:52:03.236Z,102356.52
2018-04-19T08:54:31.475Z,102350.23
2018-04-19T08:56:59.741Z,102351.51
2018-04-19T08:59:28.043Z,102349.09
2018-04-19T09:01:56.676Z,102347.16
2018-04-19T09:04:24.856Z,102344.00
2018-04-19T09:06:53.176Z,102342.46
2018-04-19T09:09:21.758Z,102337.34
2018-04-19T09:11:49.981Z,102337.42
2018-04-19T09:14:18.277Z,102334.76
2018-04-19T09:16:46.925Z,102327.16
2018-04-19T09:19:15.166Z,102333.19
2018-04-19T09:21:43.433Z,102334.36
2018-04-19T09:24:12.060Z,102335.00
2018-04-19T09:26:40.266Z,102327.55
2018-04-19T09:29:08.599Z,102327.20
2018-04-19T09:31:37.108Z,102327.06
2018-04-19T09:34:05.393Z,102325.53
2018-04-19T09:36:33.698Z,102321.24
2018-04-19T09:39:02.212Z,102322.79
2018-04-19T09:41:30.426Z,102316.90
2018-04-19T09:43:58.742Z,102315.88
2018-04-19T09:46:27.287Z,102312.67
2018-04-19T09:48:55.509Z,102311.76
2018-04-19T09:51:23.760Z,102305.80
2018-04-19T09:53:52.445Z,102310.55
2018-04-19T09:56:20.630Z,102302.70
2018-04-19T09:59:00.885Z,102308.90
2018-04-19T10:01:29.409Z,102308.80
2018-04-19T10:03:58.252Z,102307.63
2018-04-19T10:06:26.585Z,102309.77
2018-04-19T10:08:54.891Z,102303.83
2018-04-19T10:11:23.599Z,102307.31
2018-04-19T10:13:51.906Z,102298.98
2018-04-19T10:16:20.172Z,102304.85
2018-04-19T10:18:48.728Z,102299.54
2018-04-19T10:21:16.992Z,102299.72
2018-04-19T10:23:45.239Z,102296.42
2018-04-19T10:26:13.927Z,102293.28
2018-04-19T10:28:42.130Z,102291.01
2018-04-19T10:31:10.955Z,102289.25
2018-04-19T10:33:39.285Z,102287.29
2018-04-19T10:36:07.949Z,102281.39
2018-04-19T10:38:36.122Z,102288.84
2018-04-19T10:41:04.365Z,102279.94
2018-04-19T10:43:32.614Z,102273.11
2018-04-19T10:46:00.818Z,102276.05
2018-04-19T10:48:29.299Z,102264.92
2018-04-19T10:50:57.515Z,102270.50
2018-04-19T10:53:25.697Z,102266.54
2018-04-19T10:55:54.045Z,102269.30
2018-04-19T10:58:22.251Z,102265.53
2018-04-19T11:00:50.565Z,102258.86
2018-04-19T11:03:19.148Z,102258.01
2018-04-19T11:05:47.346Z,102262.03
2018-04-19T11:08:16.701Z,102258.89
2018-04-19T11:10:45.004Z,102260.52
2018-04-19T11:13:13.768Z,102260.44
2018-04-19T11:15:42.073Z,102262.72
2018-04-19T11:18:10.312Z,102252.80
2018-04-19T11:20:38.877Z,102245.39
2018-04-19T11:23:07.072Z,102247.37
2018-04-19T11:25:35.293Z,102245.45
2018-04-19T11:28:03.975Z,102238.52
2018-04-19T11:30:32.241Z,102244.91
2018-04-19T11:33:00.453Z,102230.72
2018-04-19T11:35:29.123Z,102233.00
2018-04-19T11:37:57.326Z,102225.78
2018-04-19T11:40:25.663Z,102226.80
2018-04-19T11:42:54.433Z,102227.61
2018-04-19T11:45:22.642Z,102221.36
2018-04-19T11:47:50.860Z,102219.22
2018-04-19T11:50:19.423Z,102216.66
2018-04-19T11:52:47.624Z,102215.01
2018-04-19T11:55:15.861Z,102218.55
2018-04-19T11:57:44.587Z,102217.37
2018-04-19T12:00:12.815Z,102205.44
2018-04-19T12:02:41.013Z,102212.70
2018-04-19T12:05:09.655Z,102213.45
2018-04-19T12:07:37.881Z,102212.42
2018-04-19T12:10:06.120Z,102213.27
2018-04-19T12:12:34.907Z,102203.98
2018-04-19T12:15:03.116Z,102204.31
2018-04-19T12:17:31.346Z,102212.63
2018-04-19T12:19:59.945Z,102208.92
2018-04-19T12:22:28.148Z,102202.03
2018-04-19T12:24:56.350Z,102199.76
2018-04-19T12:27:25.063Z,102202.92
2018-04-19T12:29:53.284Z,102201.90
2018-04-19T12:32:21.510Z,102200.17
2018-04-19T12:34:50.148Z,102195.28
2018-04-19T12:37:18.370Z,102201.49
2018-04-19T12:39:46.613Z,102202.66
2018-04-19T12:42:15.383Z,102197.37
2018-04-19T12:44:43.596Z,102198.18
2018-04-19T12:47:11.802Z,102199.11
2018-04-19T12:49:40.417Z,102202.84
2018-04-19T12:52:08.643Z,102205.45
2018-04-19T12:54:36.859Z,102195.78
2018-04-19T12:57:05.528Z,102194.70
2018-04-19T12:59:33.742Z,102197.33
2018-04-19T13:02:01.993Z,102187.93
2018-04-19T13:04:30.642Z,102181.78
2018-04-19T13:06:58.846Z,102181.31
2018-04-19T13:09:27.308Z,102182.61
2018-04-19T13:11:55.785Z,102174.44
2018-04-19T13:14:24.007Z,102177.37
2018-04-19T13:16:52.214Z,102169.95
2018-04-19T13:19:20.988Z,102160.24
2018-04-19T13:21:49.205Z,102158.97
2018-04-19T13:24:17.451Z,102159.00
2018-04-19T13:26:45.995Z,102159.09
2018-04-19T13:29:14.223Z,102153.95
2018-04-19T13:31:42.427Z,102154.61
2018-04-19T13:34:11.181Z,102153.09
2018-04-19T13:36:39.361Z,102148.83
2018-04-19T13:39:07.571Z,102148.32
2018-04-19T13:41:36.689Z,102140.33
2018-04-19T13:44:04.909Z,102136.26
2018-04-19T13:46:33.329Z,102134.43
2018-04-19T13:51:44.347Z,102122.09
2018-04-19T13:54:12.930Z,102123.74
2018-04-19T13:56:41.151Z,102112.04
2018-04-19T13:59:09.413Z,102110.46
2018-04-19T14:01:38.065Z,102106.83
2018-04-19T14:04:06.312Z,102099.84
2018-04-19T14:06:34.525Z,102098.78
2018-04-19T14:09:03.628Z,102098.84
2018-04-19T14:11:32.133Z,102092.60
2018-04-19T14:14:00.351Z,102092.31
2018-04-19T14:16:28.579Z,102091.27
2018-04-19T14:18:57.258Z,102091.02
2018-04-19T14:21:25.448Z,102083.27
2018-04-19T14:23:53.640Z,102079.31
2018-04-19T14:26:22.290Z,102080.87
2018-04-19T14:28:50.469Z,102077.59
2018-04-19T14:31:18.945Z,102072.30
2018-04-19T14:33:47.532Z,102074.55
2018-04-19T14:36:15.751Z,102079.75
2018-04-19T14:38:43.994Z,102070.92
2018-04-19T14:41:12.680Z,102074.55
2018-04-19T14:43:40.942Z,102064.70
2018-04-19T14:46:09.128Z,102064.36
2018-04-19T14:48:37.745Z,102063.22
2018-04-19T14:51:05.978Z,102060.37
2018-04-19T14:53:34.896Z,102051.53
2018-04-19T14:56:03.486Z,102057.67
2018-04-19T14:58:31.693Z,102053.98
2018-04-19T15:01:00.087Z,102041.70
2018-04-19T15:03:28.735Z,102042.19
2018-04-19T15:05:57.159Z,102038.08
2018-04-19T15:08:25.398Z,102040.78
2018-04-19T15:10:53.812Z,102037.79
2018-04-19T15:13:22.043Z,102037.42
2018-04-19T15:15:50.228Z,102025.59
2018-04-19T15:18:18.860Z,102034.64
2018-04-19T15:20:47.095Z,102029.13
2018-04-19T15:23:15.451Z,102032.55
2018-04-19T15:25:44.011Z,102027.94
2018-04-19T15:28:12.212Z,102025.88
2018-04-19T15:30:40.863Z,102023.47
2018-04-19T15:33:09.053Z,102013.51
2018-04-19T15:35:37.275Z,102010.52
2018-04-19T15:38:05.488Z,102008.97
2018-04-19T15:40:34.360Z,102008.30
2018-04-19T15:43:02.573Z,102009.51
2018-04-19T15:45:31.586Z,102011.69
2018-04-19T15:48:00.528Z,102004.37
2018-04-19T15:50:28.804Z,102008.48
2018-04-19T15:52:57.017Z,102010.34
2018-04-19T15:55:25.877Z,102001.70
2018-04-19T15:57:54.127Z,101997.07
2018-04-19T16:00:22.387Z,102006.41
2018-04-19T16:02:51.174Z,101996.03
2018-04-19T16:05:19.869Z,102010.02
2018-04-19T16:07:48.044Z,102008.12
2018-04-19T16:10:16.329Z,102011.62
2018-04-19T16:12:45.017Z,102007.78
2018-04-19T16:15:13.227Z,102008.80
2018-04-19T16:17:41.465Z,102008.94
2018-04-19T16:20:10.066Z,102006.45
2018-04-19T16:22:38.253Z,102000.53
2018-04-19T16:25:06.453Z,102008.03
2018-04-19T16:27:35.213Z,102000.38
2018-04-19T16:30:03.434Z,102003.19
2018-04-19T16:32:31.690Z,101995.28
2018-04-19T16:35:00.423Z,101987.34
2018-04-19T16:37:28.663Z,101995.87
2018-04-19T16:39:57.490Z,101995.32
2018-04-19T16:42:26.152Z,101990.85
2018-04-19T16:44:54.407Z,101987.00
2018-04-19T16:47:22.602Z,101986.13
2018-04-19T16:49:51.174Z,101986.98
2018-04-19T16:52:19.409Z,101982.84
2018-04-19T16:54:47.807Z,101982.13
2018-04-19T16:57:16.677Z,101980.55
2018-04-19T16:59:44.952Z,101981.66
2018-04-19T17:02:13.187Z,101979.39
2018-04-19T17:04:41.882Z,101979.88
2018-04-19T17:07:10.087Z,101978.19
2018-04-19T17:09:38.317Z,101974.31
2018-04-19T17:12:06.880Z,101976.20
2018-04-19T17:14:35.171Z,101976.26
2018-04-19T17:17:03.383Z,101969.52
2018-04-19T17:19:32.072Z,101969.39
2018-04-19T17:22:00.319Z,101973.50
2018-04-19T17:24:28.493Z,101973.48
2018-04-19T17:26:57.126Z,101970.94
2018-04-19T17:29:25.354Z,101979.50
2018-04-19T17:31:53.749Z,101964.50
2018-04-19T17:34:22.237Z,101965.08
2018-04-19T17:36:50.453Z,101967.31
2018-04-19T17:39:18.887Z,101965.81
2018-04-19T17:41:47.714Z,101967.31
2018-04-19T17:44:15.960Z,101964.40
2018-04-19T17:46:44.147Z,101967.06
2018-04-19T17:49:12.742Z,101965.80
2018-04-19T17:51:41.025Z,101963.55
2018-04-19T17:54:09.243Z,101965.82
2018-04-19T17:56:37.806Z,101961.33
2018-04-19T17:59:06.044Z,101964.03
2018-04-19T18:01:34.277Z,101959.68
2018-04-19T18:04:03.218Z,101964.81
2018-04-19T18:06:32.057Z,101968.13
2018-04-19T18:09:00.249Z,101967.93
2018-04-19T18:11:28.508Z,101970.93
2018-04-19T18:13:57.191Z,101968.08
2018-04-19T18:16:25.395Z,101966.10
2018-04-19T18:18:53.600Z,101964.41
2018-04-19T18:21:22.317Z,101968.61
2018-04-19T18:23:50.565Z,101961.50
2018-04-19T18:26:18.777Z,101965.76
2018-04-19T18:28:47.432Z,101965.17
2018-04-19T18:31:15.639Z,101962.70
2018-04-19T18:33:43.849Z,101963.47
2018-04-19T18:36:12.491Z,101967.43
2018-04-19T18:38:41.453Z,101970.67
2018-04-19T18:41:09.659Z,101972.30
2018-04-19T18:43:37.911Z,101970.35
2018-04-19T18:46:07.112Z,101973.65
2018-04-19T18:48:35.459Z,101972.14
2018-04-19T18:51:04.081Z,101969.73
2018-04-19T18:53:32.297Z,101971.67
2018-04-19T18:56:00.508Z,101974.36
2018-04-19T18:58:29.070Z,101976.70
2018-04-19T19:00:57.285Z,101976.70
2018-04-19T19:03:25.485Z,101978.29
2018-04-19T19:05:54.223Z,101977.99
2018-04-19T19:08:22.483Z,101979.08
2018-04-19T19:10:50.671Z,101983.77
2018-04-19T19:13:19.419Z,101979.86
2018-04-19T19:19:12.584Z,101983.20
2018-04-19T19:21:40.777Z,101980.88
2018-04-19T19:24:09.629Z,101986.18
2018-04-19T19:26:37.842Z,101986.78
2018-04-19T19:29:06.023Z,101995.84
2018-04-19T19:31:34.744Z,101989.91
2018-04-19T19:34:02.975Z,101991.42
2018-04-19T19:36:31.247Z,101998.06
2018-04-19T19:38:59.926Z,101999.87
2018-04-19T19:41:28.195Z,101998.88
2018-04-19T19:43:56.425Z,102002.78
2018-04-19T19:46:24.981Z,102003.30
2018-04-19T19:48:53.224Z,102003.36
2018-04-19T19:51:21.469Z,102004.20
2018-04-19T19:53:50.089Z,102002.85
2018-04-19T19:56:18.332Z,102010.33
2018-04-19T19:58:46.606Z,102004.58
2018-04-19T20:01:15.174Z,101997.92
2018-04-19T20:03:43.422Z,102002.95
2018-04-19T20:06:11.658Z,101996.95
2018-04-19T20:08:40.219Z,102004.86
2018-04-19T20:11:08.573Z,102004.78
2018-04-19T20:13:36.770Z,102001.42
2018-04-19T20:16:05.347Z,102004.17
2018-04-19T20:18:33.601Z,102001.58
2018-04-19T20:21:01.829Z,102001.87
2018-04-19T20:23:30.526Z,102002.55
2018-04-19T20:25:58.752Z,102003.34
2018-04-19T20:28:26.937Z,102009.64
2018-04-19T20:30:55.575Z,102009.05
2018-04-19T20:33:23.842Z,102007.27
2018-04-19T20:35:52.904Z,102011.58
2018-04-19T20:38:21.147Z,101999.95
2018-04-19T20:40:49.703Z,101999.39
2018-04-19T20:43:17.906Z,102004.54
2018-04-19T20:45:46.165Z,102001.34
2018-04-19T20:48:14.973Z,102003.84
2018-04-19T20:50:43.230Z,102005.97
2018-04-19T20:53:12.019Z,102006.37
2018-04-19T20:55:40.501Z,102002.97
2018-04-19T20:58:08.758Z,101999.69
2018-04-19T21:00:37.081Z,102000.98
2018-04-19T21:03:05.782Z,102006.69
2018-04-19T21:05:33.996Z,102009.09
2018-04-19T21:08:02.199Z,102003.22
2018-04-19T21:10:30.715Z,102002.27
2018-04-19T21:13:00.127Z,102008.11
2018-04-19T21:15:31.533Z,102003.08
2018-04-19T21:18:00.293Z,102002.52
2018-04-19T21:20:28.490Z,102005.00
2018-04-19T21:22:56.729Z,102006.17
2018-04-19T21:25:25.326Z,102006.71
2018-04-19T21:27:53.513Z,102005.01
2018-04-19T21:30:21.775Z,102002.47
2018-04-19T21:32:50.544Z,102001.32
2018-04-19T21:35:18.863Z,102001.27
2018-04-19T21:37:47.698Z,101998.22
2018-04-19T21:40:16.143Z,101995.91
2018-04-19T21:42:44.347Z,101998.10
2018-04-19T21:45:12.714Z,101997.89
2018-04-19T21:47:41.307Z,101993.26
2018-04-19T21:50:09.546Z,101990.47
2018-04-19T21:52:38.046Z,101998.36
2018-04-19T21:55:06.899Z,101997.28
2018-04-19T21:57:35.115Z,101996.06
2018-04-19T22:00:03.335Z,101998.71
2018-04-19T22:02:31.969Z,101995.38
2018-04-19T22:05:00.186Z,101996.18
2018-04-19T22:07:28.391Z,101994.34
2018-04-19T22:09:57.098Z,101993.58
2018-04-19T22:12:25.303Z,101993.47
2018-04-19T22:14:53.522Z,101998.95
2018-04-19T22:17:22.299Z,101995.72
2018-04-19T22:19:51.232Z,101992.30
2018-04-19T22:22:19.438Z,101990.74
2018-04-19T22:24:49.023Z,101991.91
2018-04-19T22:27:17.717Z,101996.53
2018-04-19T22:29:46.997Z,101991.64
2018-04-19T22:32:15.236Z,101993.20
2018-04-19T22:34:43.597Z,101990.73
2018-04-19T22:37:12.120Z,101988.52
2018-04-19T22:39:40.391Z,101990.28
2018-04-19T22:42:08.709Z,101992.39
2018-04-19T22:44:37.296Z,101993.77
2018-04-19T22:47:05.603Z,101993.50
2018-04-19T22:49:33.778Z,101994.16
2018-04-19T22:52:02.334Z,101989.26
2018-04-19T22:54:30.564Z,101986.25
2018-04-19T22:56:58.957Z,101987.91
2018-04-19T22:59:27.506Z,101993.81
2018-04-19T23:01:55.721Z,101990.91
2018-04-19T23:04:24.130Z,101993.25
2018-04-19T23:06:52.667Z,101987.30
2018-04-19T23:09:20.922Z,101992.55
2018-04-19T23:11:50.121Z,101985.58
2018-04-19T23:14:18.360Z,101984.66
2018-04-19T23:16:47.109Z,101981.05
2018-04-19T23:19:15.351Z,101985.95
2018-04-19T23:21:43.606Z,101979.94
2018-04-19T23:24:12.261Z,101983.29
2018-04-19T23:26:40.489Z,101981.31
2018-04-19T23:29:09.310Z,101984.01
2018-04-19T23:31:38.026Z,101981.56
2018-04-19T23:34:06.221Z,101985.55
2018-04-19T23:36:34.685Z,101985.31
2018-04-19T23:39:03.296Z,101986.80
2018-04-19T23:41:31.517Z,101987.50
2018-04-19T23:43:59.713Z,101985.13
2018-04-19T23:46:28.295Z,101989.71
2018-04-19T23:48:56.514Z,101987.06
2018-04-19T23:51:24.819Z,101984.92
2018-04-19T23:53:53.419Z,101987.91
2018-04-19T23:56:21.638Z,101989.98
2018-04-19T23:58:50.110Z,101983.52
